createdAt,value
2022-12-25T00:00:16.615Z,0.73
2022-12-25T00:02:49.953Z,0.00
2022-12-25T00:05:18.101Z,0.90
2022-12-25T00:07:46.173Z,0.00
2022-12-25T00:10:14.641Z,0.00
2022-12-25T00:12:42.852Z,0.03
2022-12-25T00:15:11.553Z,0.55
2022-12-25T00:17:39.617Z,0.05
2022-12-25T00:20:10.559Z,0.00
2022-12-25T00:22:38.621Z,0.08
2022-12-25T00:25:07.269Z,2.70
2022-12-25T00:27:37.976Z,3.30
2022-12-25T00:30:07.881Z,4.07
2022-12-25T00:32:37.158Z,0.50
2022-12-25T00:35:06.851Z,0.20
2022-12-25T00:37:36.378Z,0.03
2022-12-25T00:40:04.820Z,1.75
2022-12-25T00:42:32.891Z,0.55
2022-12-25T00:45:02.560Z,0.38
2022-12-25T00:47:31.439Z,0.57
2022-12-25T00:49:59.472Z,0.13
2022-12-25T00:52:28.219Z,0.00
2022-12-25T00:54:57.918Z,1.42
2022-12-25T00:57:25.975Z,0.13
2022-12-25T00:59:54.504Z,0.35
2022-12-25T01:02:25.879Z,0.52
2022-12-25T01:04:59.352Z,1.17
2022-12-25T01:07:28.869Z,0.00
2022-12-25T01:10:15.960Z,0.15
2022-12-25T01:12:45.168Z,0.45
2022-12-25T01:15:14.286Z,0.90
2022-12-25T01:17:43.615Z,7.03
2022-12-25T01:20:13.004Z,0.85
2022-12-25T01:22:41.119Z,1.45
2022-12-25T01:25:12.439Z,0.00
2022-12-25T01:27:42.375Z,1.05
2022-12-25T01:30:11.924Z,2.72
2022-12-25T01:32:40.195Z,0.00
2022-12-25T01:35:08.867Z,0.00
2022-12-25T01:37:37.174Z,1.55
2022-12-25T01:40:06.008Z,6.40
2022-12-25T01:42:35.955Z,16.55
2022-12-25T01:45:35.875Z,0.80
2022-12-25T01:48:06.871Z,0.20
2022-12-25T01:50:37.555Z,18.08
2022-12-25T01:53:06.237Z,0.10
2022-12-25T01:55:36.311Z,0.30
2022-12-25T02:03:27.498Z,6.07
2022-12-25T02:05:55.664Z,4.18
2022-12-25T02:08:24.812Z,3.42
2022-12-25T02:10:52.925Z,0.00
2022-12-25T02:13:22.764Z,1.35
2022-12-25T02:16:00.318Z,0.80
2022-12-25T02:18:37.800Z,0.65
2022-12-25T02:21:28.810Z,1.25
2022-12-25T02:24:14.428Z,0.57
2022-12-25T02:27:05.660Z,7.85
2022-12-25T02:29:43.804Z,0.75
2022-12-25T02:32:21.704Z,0.05
2022-12-25T02:34:57.380Z,15.50
2022-12-25T02:37:32.138Z,16.65
2022-12-25T02:40:06.104Z,0.10
2022-12-25T02:43:01.127Z,0.13
2022-12-25T02:45:58.034Z,0.00
2022-12-25T02:48:46.827Z,0.22
2022-12-25T02:51:35.453Z,0.88
2022-12-25T02:54:26.454Z,6.88
2022-12-25T02:57:14.438Z,0.10
2022-12-25T03:00:04.221Z,0.15
2022-12-25T03:02:52.533Z,0.00
2022-12-25T03:05:42.380Z,0.55
2022-12-25T03:08:14.634Z,0.08
2022-12-25T03:11:07.110Z,0.00
2022-12-25T03:13:39.128Z,2.47
2022-12-25T03:16:26.063Z,0.55
2022-12-25T03:18:58.833Z,0.00
2022-12-25T03:21:44.656Z,0.00
2022-12-25T03:24:30.064Z,0.00
2022-12-25T03:26:59.129Z,2.63
2022-12-25T03:29:48.237Z,3.90
2022-12-25T03:32:28.054Z,28.83
2022-12-25T03:35:20.763Z,0.57
2022-12-25T03:38:22.507Z,0.25
2022-12-25T03:41:21.450Z,0.00
2022-12-25T03:44:14.516Z,1.15
2022-12-25T03:47:05.973Z,21.50
2022-12-25T03:49:58.768Z,1.35
2022-12-25T03:52:48.144Z,2.45
2022-12-25T03:55:35.789Z,2.92
2022-12-25T03:58:21.490Z,0.00
2022-12-25T04:01:07.291Z,0.00
2022-12-25T04:03:53.028Z,8.98
2022-12-25T04:06:38.757Z,0.00
2022-12-25T04:09:25.776Z,0.00
2022-12-25T04:12:11.095Z,0.00
2022-12-25T04:14:56.333Z,0.10
2022-12-25T04:17:41.965Z,4.00
2022-12-25T04:20:39.503Z,1.40
2022-12-25T04:23:24.863Z,4.07
2022-12-25T04:26:11.928Z,8.43
2022-12-25T04:28:59.910Z,9.20
2022-12-25T04:31:48.326Z,0.73
2022-12-25T04:34:34.094Z,17.08
2022-12-25T04:37:02.085Z,5.43
2022-12-25T04:39:30.220Z,5.80
2022-12-25T04:42:01.274Z,0.65
2022-12-25T04:44:29.682Z,6.75
2022-12-25T04:46:58.000Z,0.00
2022-12-25T04:49:26.170Z,3.00
2022-12-25T04:51:54.476Z,0.65
2022-12-25T04:54:22.830Z,0.00
2022-12-25T04:56:50.953Z,0.00
2022-12-25T04:59:20.676Z,0.00
2022-12-25T05:01:48.914Z,0.00
2022-12-25T05:04:16.996Z,2.40
2022-12-25T05:06:45.397Z,0.10
2022-12-25T05:09:13.437Z,0.00
2022-12-25T05:11:41.462Z,1.35
2022-12-25T05:14:09.665Z,0.70
2022-12-25T05:16:39.738Z,0.00
2022-12-25T05:19:08.476Z,0.00
2022-12-25T05:21:36.698Z,0.57
2022-12-25T05:24:04.941Z,0.00
2022-12-25T05:26:33.064Z,0.30
2022-12-25T05:29:01.554Z,0.00
2022-12-25T05:31:29.738Z,1.58
2022-12-25T05:33:59.683Z,6.30
2022-12-25T05:36:28.362Z,0.00
2022-12-25T05:38:56.821Z,0.00
2022-12-25T05:41:27.870Z,1.60
2022-12-25T05:44:00.577Z,0.00
2022-12-25T05:46:28.833Z,0.60
2022-12-25T05:48:58.473Z,3.47
2022-12-25T05:51:26.895Z,17.02
2022-12-25T05:53:55.215Z,2.85
2022-12-25T05:56:23.465Z,0.00
2022-12-25T05:58:51.785Z,0.10
2022-12-25T06:01:22.742Z,5.05
2022-12-25T06:03:50.848Z,0.13
2022-12-25T06:06:20.416Z,7.03
2022-12-25T06:08:49.795Z,9.63
2022-12-25T06:11:17.821Z,1.15
2022-12-25T06:13:46.029Z,10.57
2022-12-25T06:16:14.304Z,1.27
2022-12-25T06:18:45.997Z,2.58
2022-12-25T06:21:16.246Z,0.30
2022-12-25T06:23:46.816Z,0.10
2022-12-25T06:26:17.224Z,0.43
2022-12-25T06:28:45.910Z,0.08
2022-12-25T06:31:17.188Z,13.95
2022-12-25T06:33:45.938Z,0.00
2022-12-25T06:36:17.006Z,1.55
2022-12-25T06:38:46.925Z,0.00
2022-12-25T06:41:17.844Z,6.63
2022-12-25T06:43:49.832Z,0.00
2022-12-25T06:46:18.262Z,13.38
2022-12-25T06:48:49.944Z,1.65
2022-12-25T06:51:18.663Z,8.65
2022-12-25T06:53:48.949Z,0.00
2022-12-25T06:56:19.620Z,0.45
2022-12-25T06:58:49.101Z,0.47
2022-12-25T07:01:22.427Z,0.05
2022-12-25T07:03:53.284Z,1.20
2022-12-25T07:06:21.354Z,0.65
2022-12-25T07:08:51.355Z,3.60
2022-12-25T07:11:19.878Z,7.18
2022-12-25T07:13:48.475Z,1.77
2022-12-25T07:16:17.640Z,1.88
2022-12-25T07:18:45.805Z,0.65
2022-12-25T07:21:15.950Z,0.52
2022-12-25T07:26:15.049Z,0.03
2022-12-25T07:28:43.140Z,8.13
2022-12-25T07:31:13.264Z,12.38
2022-12-25T07:36:12.980Z,12.60
2022-12-25T07:38:42.046Z,14.82
2022-12-25T07:41:10.794Z,9.55
2022-12-25T07:43:40.577Z,19.10
2022-12-25T07:46:09.070Z,15.90
2022-12-25T07:48:37.581Z,20.85
2022-12-25T07:51:07.765Z,14.07
2022-12-25T07:56:06.432Z,14.63
2022-12-25T08:01:06.497Z,22.88
2022-12-25T08:03:36.707Z,22.25
2022-12-25T08:06:06.881Z,14.70
2022-12-25T08:08:35.365Z,23.77
2022-12-25T08:11:03.565Z,18.13
2022-12-25T08:13:32.339Z,18.60
2022-12-25T08:16:01.988Z,22.45
2022-12-25T08:18:33.078Z,21.60
2022-12-25T08:21:05.277Z,16.02
2022-12-25T08:23:35.606Z,7.80
2022-12-25T08:26:05.869Z,19.88
2022-12-25T08:28:35.116Z,13.68
2022-12-25T08:31:11.657Z,19.33
2022-12-25T08:33:41.689Z,12.73
2022-12-25T08:36:11.630Z,34.58
2022-12-25T08:38:40.751Z,25.08
2022-12-25T08:41:09.276Z,16.20
2022-12-25T08:43:38.847Z,17.45
2022-12-25T08:46:13.707Z,18.20
2022-12-25T08:48:45.795Z,25.02
2022-12-25T08:51:15.949Z,15.65
2022-12-25T08:56:13.380Z,19.33
2022-12-25T08:58:45.277Z,24.98
2022-12-25T09:01:16.385Z,22.55
2022-12-25T09:03:46.161Z,32.63
2022-12-25T09:06:16.538Z,22.75
2022-12-25T09:08:49.209Z,33.85
2022-12-25T09:11:20.227Z,22.52
2022-12-25T09:13:49.219Z,27.05
2022-12-25T09:16:20.290Z,15.02
2022-12-25T09:18:50.383Z,25.85
2022-12-25T09:21:19.218Z,18.40
2022-12-25T09:23:47.402Z,17.55
2022-12-25T09:26:17.508Z,19.70
2022-12-25T09:31:21.032Z,19.30
2022-12-25T09:33:51.088Z,11.68
2022-12-25T09:36:23.589Z,17.55
2022-12-25T09:38:52.067Z,17.67
2022-12-25T09:41:28.401Z,14.88
2022-12-25T09:44:01.519Z,13.80
2022-12-25T09:46:37.310Z,12.98
2022-12-25T09:49:21.505Z,14.18
2022-12-25T09:52:00.519Z,14.98
2022-12-25T09:54:40.867Z,14.50
2022-12-25T09:57:12.221Z,19.23
2022-12-25T09:59:41.291Z,12.20
2022-12-25T10:02:38.144Z,13.23
2022-12-25T10:05:31.968Z,21.70
2022-12-25T10:08:13.436Z,29.77
2022-12-25T10:10:54.828Z,18.63
2022-12-25T10:13:52.816Z,22.30
2022-12-25T10:16:34.991Z,13.00
2022-12-25T10:19:29.783Z,25.27
2022-12-25T10:22:02.749Z,15.68
2022-12-25T10:24:37.416Z,15.73
2022-12-25T10:27:20.316Z,15.82
2022-12-25T10:29:53.934Z,18.58
2022-12-25T10:32:24.198Z,17.95
2022-12-25T10:34:53.053Z,16.30
2022-12-25T10:37:26.557Z,20.38
2022-12-25T10:39:54.935Z,12.70
2022-12-25T10:42:34.936Z,12.70
2022-12-25T10:45:06.080Z,13.40
2022-12-25T10:47:38.159Z,13.25
2022-12-25T10:50:11.692Z,13.05
2022-12-25T10:52:56.797Z,8.85
2022-12-25T10:55:29.123Z,10.90
2022-12-25T10:57:58.987Z,5.55
2022-12-25T11:00:30.615Z,10.13
2022-12-25T11:03:02.862Z,6.47
2022-12-25T11:05:32.548Z,5.28
2022-12-25T11:08:05.009Z,3.97
2022-12-25T11:10:38.179Z,9.45
2022-12-25T11:13:08.622Z,13.15
2022-12-25T11:15:40.005Z,4.68
2022-12-25T11:18:20.721Z,7.95
2022-12-25T11:20:54.660Z,5.00
2022-12-25T11:23:27.742Z,11.73
2022-12-25T11:25:59.572Z,9.27
2022-12-25T11:28:32.403Z,5.78
2022-12-25T11:31:04.132Z,6.95
2022-12-25T11:33:40.175Z,8.05
2022-12-25T11:36:17.104Z,7.18
2022-12-25T11:38:47.368Z,7.07
2022-12-25T11:41:20.877Z,11.95
2022-12-25T11:43:56.939Z,13.70
2022-12-25T11:46:30.965Z,9.10
2022-12-25T11:49:03.625Z,9.88
2022-12-25T11:51:37.240Z,5.40
2022-12-25T11:54:18.529Z,9.80
2022-12-25T11:56:48.595Z,10.85
2022-12-25T11:59:24.305Z,9.60
2022-12-25T12:01:56.330Z,9.38
2022-12-25T12:04:32.680Z,6.53
2022-12-25T12:07:14.144Z,11.40
2022-12-25T12:10:06.382Z,8.88
2022-12-25T12:12:48.485Z,18.05
2022-12-25T12:15:27.400Z,11.23
2022-12-25T12:17:55.498Z,12.93
2022-12-25T12:20:33.953Z,12.30
2022-12-25T12:23:06.240Z,17.05
2022-12-25T12:25:42.501Z,10.52
2022-12-25T12:28:15.706Z,6.15
2022-12-25T12:30:44.664Z,10.50
2022-12-25T12:33:21.914Z,7.05
2022-12-25T12:35:50.748Z,9.82
2022-12-25T12:38:21.699Z,20.08
2022-12-25T12:40:57.283Z,8.27
2022-12-25T12:46:35.706Z,8.35
2022-12-25T12:49:11.518Z,5.95
2022-12-25T12:51:39.894Z,13.65
2022-12-25T12:54:21.423Z,11.68
2022-12-25T12:57:12.040Z,13.57
2022-12-25T12:59:43.650Z,13.27
2022-12-25T13:02:37.283Z,5.43
2022-12-25T13:05:09.334Z,16.38
2022-12-25T13:07:54.863Z,13.52
2022-12-25T13:10:28.587Z,8.80
2022-12-25T13:13:00.657Z,6.28
2022-12-25T13:15:32.267Z,11.90
2022-12-25T13:18:04.143Z,7.70
2022-12-25T13:20:41.990Z,10.50
2022-12-25T13:23:28.042Z,10.75
2022-12-25T13:25:58.205Z,2.25
2022-12-25T13:31:11.259Z,8.85
2022-12-25T13:33:39.986Z,11.80
2022-12-25T13:36:12.553Z,7.97
2022-12-25T13:38:46.613Z,11.32
2022-12-25T13:41:36.677Z,15.07
2022-12-25T13:44:12.820Z,13.32
2022-12-25T13:46:40.966Z,9.50
2022-12-25T13:49:15.231Z,12.43
2022-12-25T13:51:43.908Z,11.50
2022-12-25T13:54:14.414Z,9.73
2022-12-25T13:56:49.196Z,4.72
2022-12-25T13:59:21.501Z,6.00
2022-12-25T14:01:50.830Z,10.80
2022-12-25T14:04:21.673Z,7.40
2022-12-25T14:06:50.855Z,6.68
2022-12-25T14:09:20.523Z,11.10
2022-12-25T14:11:53.685Z,6.97
2022-12-25T14:14:26.446Z,6.97
2022-12-25T14:16:59.994Z,5.65
2022-12-25T14:19:33.042Z,9.95
2022-12-25T14:22:04.302Z,9.77
2022-12-25T14:24:35.808Z,10.95
2022-12-25T14:27:08.065Z,11.40
2022-12-25T14:29:40.970Z,13.10
2022-12-25T14:32:18.037Z,11.32
2022-12-25T14:34:48.713Z,9.07
2022-12-25T14:37:19.707Z,5.57
2022-12-25T14:39:56.730Z,6.20
2022-12-25T14:42:27.463Z,4.43
2022-12-25T14:45:06.625Z,16.25
2022-12-25T14:47:50.693Z,5.78
2022-12-25T14:50:27.680Z,7.25
2022-12-25T14:52:56.163Z,9.18
2022-12-25T14:55:27.191Z,17.30
2022-12-25T14:58:00.012Z,10.88
2022-12-25T15:00:35.696Z,9.52
2022-12-25T15:03:08.561Z,13.98
2022-12-25T15:05:39.143Z,10.77
2022-12-25T15:08:23.691Z,7.97
2022-12-25T15:11:02.137Z,10.15
2022-12-25T15:13:32.298Z,8.70
2022-12-25T15:16:05.826Z,7.40
2022-12-25T15:18:39.614Z,10.02
2022-12-25T15:21:08.271Z,9.23
2022-12-25T15:23:38.364Z,10.68
2022-12-25T15:26:07.017Z,12.95
2022-12-25T15:28:35.018Z,7.40
2022-12-25T15:31:04.811Z,17.27
2022-12-25T15:33:33.596Z,16.98
2022-12-25T15:36:02.046Z,10.95
2022-12-25T15:38:36.523Z,13.15
2022-12-25T15:41:04.791Z,13.23
2022-12-25T15:43:41.329Z,13.30
2022-12-25T15:46:12.383Z,12.45
2022-12-25T15:48:40.504Z,11.23
2022-12-25T15:51:08.637Z,19.00
2022-12-25T15:53:36.892Z,18.98
2022-12-25T15:56:05.240Z,13.70
2022-12-25T15:58:33.305Z,13.18
2022-12-25T16:01:01.411Z,11.35
2022-12-25T16:03:31.014Z,16.95
2022-12-25T16:05:59.232Z,13.60
2022-12-25T16:08:28.348Z,13.00
2022-12-25T16:10:56.381Z,13.75
2022-12-25T16:13:24.720Z,13.70
2022-12-25T16:15:53.259Z,9.25
2022-12-25T16:18:21.405Z,14.55
2022-12-25T16:20:51.018Z,11.23
2022-12-25T16:23:19.474Z,12.82
2022-12-25T16:25:48.019Z,19.88
2022-12-25T16:28:16.302Z,12.35
2022-12-25T16:30:44.827Z,19.48
2022-12-25T16:33:13.366Z,13.10
2022-12-25T16:35:41.576Z,19.45
2022-12-25T16:38:11.833Z,22.05
2022-12-25T16:40:40.680Z,21.50
2022-12-25T16:43:10.021Z,18.02
2022-12-25T16:45:41.019Z,13.38
2022-12-25T16:48:09.398Z,14.98
2022-12-25T16:50:39.585Z,16.15
2022-12-25T16:55:38.924Z,13.30
2022-12-25T16:58:07.834Z,16.65
2022-12-25T17:00:35.865Z,15.75
2022-12-25T17:03:04.328Z,19.48
2022-12-25T17:05:34.646Z,15.55
2022-12-25T17:10:30.740Z,18.00
2022-12-25T17:13:00.159Z,11.43
2022-12-25T17:15:29.308Z,13.65
2022-12-25T17:17:57.517Z,17.67
2022-12-25T17:20:25.634Z,19.95
2022-12-25T17:22:53.652Z,30.33
2022-12-25T17:25:21.954Z,18.42
2022-12-25T17:27:51.356Z,11.15
2022-12-25T17:30:21.074Z,22.58
2022-12-25T17:32:49.135Z,13.18
2022-12-25T17:35:18.393Z,21.13
2022-12-25T17:37:46.753Z,16.67
2022-12-25T17:40:18.076Z,18.90
2022-12-25T17:42:48.747Z,14.98
2022-12-25T17:45:17.680Z,19.67
2022-12-25T17:47:47.126Z,17.02
2022-12-25T17:50:15.142Z,21.80
2022-12-25T17:52:43.322Z,9.90
2022-12-25T17:55:11.589Z,6.25
2022-12-25T17:57:41.337Z,11.90
2022-12-25T18:00:10.705Z,10.48
2022-12-25T18:02:49.609Z,13.60
2022-12-25T18:05:17.918Z,12.30
2022-12-25T18:07:46.384Z,16.90
2022-12-25T18:10:14.958Z,5.65
2022-12-25T18:12:44.698Z,18.45
2022-12-25T18:15:13.382Z,18.65
2022-12-25T18:17:43.489Z,29.77
2022-12-25T18:22:41.181Z,11.02
2022-12-25T18:25:10.463Z,9.95
2022-12-25T18:27:38.651Z,6.88
2022-12-25T18:30:08.130Z,5.50
2022-12-25T18:32:36.223Z,4.97
2022-12-25T18:35:04.723Z,6.18
2022-12-25T18:37:40.003Z,14.48
2022-12-25T18:40:09.851Z,18.92
2022-12-25T18:42:43.216Z,13.43
2022-12-25T18:45:13.997Z,10.90
2022-12-25T18:47:42.307Z,10.00
2022-12-25T18:50:11.173Z,3.65
2022-12-25T18:52:49.218Z,3.63
2022-12-25T18:55:19.540Z,1.88
2022-12-25T18:57:48.635Z,3.28
2022-12-25T19:00:17.266Z,4.13
2022-12-25T19:02:45.524Z,4.82
2022-12-25T19:05:13.661Z,6.63
2022-12-25T19:07:43.229Z,4.50
2022-12-25T19:10:11.667Z,2.60
2022-12-25T19:12:39.776Z,2.65
2022-12-25T19:15:08.831Z,3.50
2022-12-25T19:17:36.938Z,4.35
2022-12-25T19:20:06.108Z,6.75
2022-12-25T19:22:34.194Z,6.00
2022-12-25T19:25:03.670Z,4.65
2022-12-25T19:27:31.951Z,6.28
2022-12-25T19:30:00.285Z,2.15
2022-12-25T19:32:35.173Z,3.38
2022-12-25T19:35:10.970Z,3.58
2022-12-25T19:37:45.258Z,1.92
2022-12-25T19:40:17.945Z,2.17
2022-12-25T19:42:46.245Z,3.97
2022-12-25T19:45:14.545Z,4.13
2022-12-25T19:47:54.829Z,1.55
2022-12-25T19:50:28.458Z,2.47
2022-12-25T19:52:56.847Z,4.30
2022-12-25T19:55:26.464Z,1.77
2022-12-25T19:57:55.505Z,2.33
2022-12-25T20:00:25.659Z,5.00
2022-12-25T20:05:24.036Z,9.13
2022-12-25T20:07:52.264Z,7.22
2022-12-25T20:10:20.354Z,3.67
2022-12-25T20:12:49.876Z,6.20
2022-12-25T20:15:18.818Z,8.93
2022-12-25T20:17:47.755Z,4.00
2022-12-25T20:20:15.917Z,14.90
2022-12-25T20:22:44.238Z,14.23
2022-12-25T20:25:14.028Z,6.30
2022-12-25T20:27:42.112Z,4.32
2022-12-25T20:30:13.781Z,4.70
2022-12-25T20:32:48.073Z,8.00
2022-12-25T20:35:19.110Z,8.07
2022-12-25T20:37:48.505Z,0.10
2022-12-25T20:40:17.135Z,0.10
2022-12-25T20:42:45.477Z,0.63
2022-12-25T20:45:15.439Z,0.10
2022-12-25T20:47:43.788Z,0.00
2022-12-25T20:50:11.960Z,0.00
2022-12-25T20:52:40.137Z,0.20
2022-12-25T20:55:09.015Z,0.38
2022-12-25T20:57:37.154Z,0.45
2022-12-25T21:00:06.455Z,0.90
2022-12-25T21:02:37.544Z,0.95
2022-12-25T21:05:08.040Z,0.55
2022-12-25T21:07:36.632Z,0.80
2022-12-25T21:10:06.871Z,0.08
2022-12-25T21:12:35.326Z,0.30
2022-12-25T21:15:06.823Z,0.00
2022-12-25T21:17:38.784Z,0.08
2022-12-25T21:20:17.923Z,0.52
2022-12-25T21:22:48.380Z,0.50
2022-12-25T21:25:19.815Z,0.20
2022-12-25T21:27:48.063Z,0.68
2022-12-25T21:30:16.279Z,0.13
2022-12-25T21:33:00.021Z,0.43
2022-12-25T21:35:31.141Z,0.57
2022-12-25T21:37:59.975Z,0.08
2022-12-25T21:40:28.207Z,0.20
2022-12-25T21:42:56.742Z,0.40
2022-12-25T21:45:25.074Z,1.13
2022-12-25T21:48:13.652Z,5.60
2022-12-25T21:50:59.277Z,0.00
2022-12-25T21:53:27.510Z,0.00
2022-12-25T21:56:00.720Z,0.20
2022-12-25T21:58:28.972Z,0.00
2022-12-25T22:00:57.593Z,0.20
2022-12-25T22:03:27.254Z,0.15
2022-12-25T22:06:21.783Z,0.40
2022-12-25T22:08:50.594Z,0.10
2022-12-25T22:11:36.370Z,0.30
2022-12-25T22:14:51.103Z,1.92
2022-12-25T22:17:31.907Z,0.70
2022-12-25T22:20:04.731Z,0.90
2022-12-25T22:22:33.701Z,0.10
2022-12-25T22:25:04.264Z,0.15
2022-12-25T22:27:38.543Z,0.10
2022-12-25T22:30:13.316Z,0.38
2022-12-25T22:32:44.937Z,0.47
2022-12-25T22:35:15.929Z,3.20
2022-12-25T22:37:44.502Z,4.03
2022-12-25T22:40:19.061Z,3.42
2022-12-25T22:42:47.367Z,0.05
2022-12-25T22:45:20.114Z,0.10
2022-12-25T22:47:51.680Z,0.25
2022-12-25T22:50:21.699Z,0.28
2022-12-25T22:52:51.151Z,0.55
2022-12-25T22:55:20.352Z,0.15
2022-12-25T22:57:49.183Z,0.00
2022-12-25T23:00:17.506Z,0.45
2022-12-25T23:02:47.553Z,0.08
2022-12-25T23:05:16.592Z,0.60
2022-12-25T23:07:46.800Z,0.00
2022-12-25T23:10:15.278Z,0.80
2022-12-25T23:13:01.792Z,0.00
2022-12-25T23:15:30.146Z,0.00
2022-12-25T23:18:16.949Z,2.38
2022-12-25T23:21:02.417Z,2.08
2022-12-25T23:23:49.802Z,0.00
2022-12-25T23:26:19.077Z,0.00
2022-12-25T23:29:16.209Z,0.10
2022-12-25T23:31:44.856Z,0.00
2022-12-25T23:34:13.080Z,0.00
2022-12-25T23:36:41.489Z,1.50
2022-12-25T23:39:12.318Z,0.00
2022-12-25T23:41:44.579Z,0.40
2022-12-25T23:44:14.123Z,0.35
2022-12-25T23:46:52.562Z,0.08
2022-12-25T23:49:22.031Z,0.00
2022-12-25T23:51:50.234Z,0.00
2022-12-25T23:54:21.632Z,2.17
2022-12-25T23:56:50.607Z,0.93
2022-12-25T23:59:19.868Z,0.00
